createdAt,value
2022-08-05T00:00:20.874Z,2.05
2022-08-05T00:02:51.593Z,1.80
2022-08-05T00:06:02.064Z,1.70
2022-08-05T00:08:06.818Z,2.00
2022-08-05T00:10:53.163Z,1.77
2022-08-05T00:13:19.970Z,1.70
2022-08-05T00:15:55.757Z,1.77
2022-08-05T00:18:25.117Z,1.90
2022-08-05T00:20:51.990Z,1.90
2022-08-05T00:23:44.720Z,1.88
2022-08-05T00:26:07.166Z,1.65
2022-08-05T00:28:33.938Z,1.88
2022-08-05T00:31:04.115Z,2.33
2022-08-05T00:34:54.081Z,1.75
2022-08-05T00:37:12.553Z,2.00
2022-08-05T00:39:05.515Z,1.90
2022-08-05T00:41:46.815Z,2.08
2022-08-05T00:44:19.075Z,1.90
2022-08-05T00:46:47.592Z,1.80
2022-08-05T00:49:20.995Z,1.80
2022-08-05T00:51:50.995Z,1.90
2022-08-05T00:54:18.795Z,2.30
2022-08-05T00:56:51.561Z,1.75
2022-08-05T00:59:18.542Z,2.00
2022-08-05T01:01:48.899Z,2.20
2022-08-05T01:04:19.909Z,2.60
2022-08-05T01:06:48.763Z,1.92
2022-08-05T01:09:19.882Z,2.13
2022-08-05T01:11:49.582Z,2.15
2022-08-05T01:14:34.713Z,2.10
2022-08-05T01:17:02.045Z,2.03
2022-08-05T01:20:01.880Z,1.80
2022-08-05T01:22:30.570Z,2.47
2022-08-05T01:25:17.274Z,2.47
2022-08-05T01:27:56.037Z,1.88
2022-08-05T01:30:34.590Z,2.17
2022-08-05T01:33:03.731Z,2.20
2022-08-05T01:35:53.111Z,2.10
2022-08-05T01:38:24.665Z,1.85
2022-08-05T01:40:55.378Z,1.92
2022-08-05T01:43:24.038Z,1.90
2022-08-05T01:45:56.252Z,2.03
2022-08-05T01:48:25.092Z,2.20
2022-08-05T01:50:52.386Z,2.55
2022-08-05T01:53:54.500Z,2.00
2022-08-05T01:56:09.479Z,2.35
2022-08-05T01:58:44.966Z,2.33
2022-08-05T02:01:25.456Z,2.28
2022-08-05T02:03:55.560Z,2.03
2022-08-05T02:06:38.151Z,2.28
2022-08-05T02:09:05.866Z,2.03
2022-08-05T02:11:58.802Z,2.05
2022-08-05T02:14:32.061Z,2.22
2022-08-05T02:17:03.952Z,2.30
2022-08-05T02:19:34.169Z,2.10
2022-08-05T02:22:26.730Z,1.90
2022-08-05T02:25:02.017Z,1.90
2022-08-05T02:27:59.792Z,2.17
2022-08-05T02:30:17.799Z,2.10
2022-08-05T02:32:48.072Z,2.10
2022-08-05T02:35:19.055Z,2.00
2022-08-05T02:37:55.070Z,1.75
2022-08-05T02:40:26.089Z,2.08
2022-08-05T02:42:55.722Z,1.77
2022-08-05T02:45:26.440Z,1.80
2022-08-05T02:48:07.282Z,2.00
2022-08-05T02:50:43.783Z,2.08
2022-08-05T02:53:15.944Z,1.75
2022-08-05T02:55:59.623Z,1.75
2022-08-05T02:58:27.504Z,1.83
2022-08-05T03:00:56.290Z,1.70
2022-08-05T03:03:23.399Z,1.73
2022-08-05T03:06:53.819Z,1.98
2022-08-05T03:08:38.858Z,1.98
2022-08-05T03:11:54.386Z,1.58
2022-08-05T03:14:07.905Z,1.85
2022-08-05T03:16:35.799Z,2.20
2022-08-05T03:19:04.214Z,1.85
2022-08-05T03:21:49.423Z,2.10
2022-08-05T03:24:17.381Z,2.08
2022-08-05T03:26:44.002Z,2.00
2022-08-05T03:29:17.330Z,1.75
2022-08-05T03:31:56.868Z,1.80
2022-08-05T03:34:24.746Z,1.65
2022-08-05T03:36:53.848Z,1.90
2022-08-05T03:39:27.017Z,1.80
2022-08-05T03:41:56.393Z,2.00
2022-08-05T03:44:23.510Z,1.98
2022-08-05T03:46:50.406Z,1.60
2022-08-05T03:49:17.152Z,2.00
2022-08-05T03:52:48.332Z,1.95
2022-08-05T03:55:51.627Z,2.20
2022-08-05T03:57:42.536Z,1.75
2022-08-05T04:00:15.894Z,1.70
2022-08-05T04:02:58.294Z,1.70
2022-08-05T04:05:33.667Z,1.70
2022-08-05T04:08:14.560Z,1.80
2022-08-05T04:10:52.776Z,1.90
2022-08-05T04:13:21.619Z,1.70
2022-08-05T04:16:02.929Z,1.90
2022-08-05T04:18:32.349Z,2.38
2022-08-05T04:21:01.740Z,2.15
2022-08-05T04:24:05.718Z,2.10
2022-08-05T04:26:17.770Z,2.22
2022-08-05T04:28:51.168Z,2.08
2022-08-05T04:31:19.336Z,2.10
2022-08-05T04:34:17.991Z,2.22
2022-08-05T04:36:46.570Z,1.92
2022-08-05T04:39:20.643Z,1.95
2022-08-05T04:41:48.748Z,1.60
2022-08-05T04:44:21.450Z,1.80
2022-08-05T04:47:08.914Z,1.92
2022-08-05T04:50:02.067Z,2.05
2022-08-05T04:52:24.003Z,1.77
2022-08-05T04:54:54.257Z,2.20
2022-08-05T04:57:28.622Z,2.00
2022-08-05T04:59:57.306Z,2.30
2022-08-05T05:02:36.497Z,2.25
2022-08-05T05:05:26.117Z,2.20
2022-08-05T05:07:56.207Z,2.10
2022-08-05T05:10:27.331Z,1.75
2022-08-05T05:12:56.629Z,1.63
2022-08-05T05:15:56.595Z,1.70
2022-08-05T05:18:28.494Z,2.20
2022-08-05T05:21:04.308Z,1.85
2022-08-05T05:24:01.961Z,1.83
2022-08-05T05:26:19.061Z,1.98
2022-08-05T05:28:45.798Z,2.10
2022-08-05T05:31:13.857Z,1.77
2022-08-05T05:33:57.076Z,1.55
2022-08-05T05:36:28.645Z,1.80
2022-08-05T05:38:57.153Z,1.70
2022-08-05T05:41:24.092Z,1.40
2022-08-05T05:43:56.918Z,1.70
2022-08-05T05:46:25.662Z,1.70
2022-08-05T05:48:52.356Z,2.10
2022-08-05T05:51:23.405Z,1.92
2022-08-05T05:53:57.540Z,1.88
2022-08-05T05:56:31.900Z,1.90
2022-08-05T05:59:05.245Z,1.80
2022-08-05T06:01:33.431Z,1.67
2022-08-05T06:04:05.476Z,1.90
2022-08-05T06:06:34.687Z,1.70
2022-08-05T06:09:03.930Z,1.70
2022-08-05T06:11:31.289Z,2.10
2022-08-05T06:13:58.029Z,1.98
2022-08-05T06:16:36.665Z,1.75
2022-08-05T06:19:05.744Z,1.90
2022-08-05T06:21:36.747Z,1.90
2022-08-05T06:24:04.542Z,1.50
2022-08-05T06:26:33.986Z,1.90
2022-08-05T06:29:03.707Z,1.75
2022-08-05T06:31:49.262Z,1.80
2022-08-05T06:34:17.454Z,1.60
2022-08-05T06:36:57.494Z,2.00
2022-08-05T06:39:27.863Z,1.75
2022-08-05T06:41:58.980Z,1.65
2022-08-05T06:44:26.141Z,1.95
2022-08-05T06:46:52.873Z,1.80
2022-08-05T06:49:39.173Z,1.65
2022-08-05T06:52:07.935Z,1.75
2022-08-05T06:54:54.496Z,2.05
2022-08-05T06:57:57.676Z,2.00
2022-08-05T07:00:09.663Z,2.10
2022-08-05T07:02:43.245Z,2.22
2022-08-05T07:05:14.407Z,1.92
2022-08-05T07:07:49.002Z,1.70
2022-08-05T07:10:16.310Z,1.95
2022-08-05T07:13:01.963Z,1.90
2022-08-05T07:16:00.978Z,2.40
2022-08-05T07:18:31.899Z,1.80
2022-08-05T07:20:58.846Z,1.80
2022-08-05T07:23:32.072Z,1.92
2022-08-05T07:25:58.725Z,1.77
2022-08-05T07:28:25.443Z,2.10
2022-08-05T07:30:55.138Z,1.75
2022-08-05T07:33:36.649Z,1.70
2022-08-05T07:36:20.274Z,1.90
2022-08-05T07:38:47.988Z,1.60
2022-08-05T07:42:07.671Z,1.70
2022-08-05T07:44:05.175Z,2.15
2022-08-05T07:46:32.119Z,1.88
2022-08-05T07:49:05.937Z,1.90
2022-08-05T07:51:36.917Z,2.05
2022-08-05T07:54:08.345Z,1.77
2022-08-05T07:56:39.223Z,2.30
2022-08-05T07:59:39.117Z,1.90
2022-08-05T08:02:10.673Z,2.00
2022-08-05T08:04:43.174Z,2.17
2022-08-05T08:07:12.112Z,1.80
2022-08-05T08:09:38.730Z,2.20
2022-08-05T08:12:11.497Z,2.00
2022-08-05T08:14:46.843Z,1.92
2022-08-05T08:17:15.966Z,2.08
2022-08-05T08:20:22.957Z,2.20
2022-08-05T08:22:32.324Z,2.13
2022-08-05T08:25:03.172Z,2.08
2022-08-05T08:27:40.414Z,2.03
2022-08-05T08:30:20.223Z,2.42
2022-08-05T08:33:04.732Z,2.38
2022-08-05T08:35:41.207Z,2.30
2022-08-05T08:38:11.637Z,2.33
2022-08-05T08:40:45.696Z,2.10
2022-08-05T08:44:55.772Z,2.25
2022-08-05T08:46:06.262Z,2.35
2022-08-05T08:49:02.931Z,2.30
2022-08-05T08:52:04.012Z,2.40
2022-08-05T08:54:11.085Z,2.25
2022-08-05T08:56:47.820Z,2.30
2022-08-05T08:59:19.431Z,2.65
2022-08-05T09:01:57.351Z,2.28
2022-08-05T09:04:30.140Z,1.83
2022-08-05T09:06:58.442Z,2.20
2022-08-05T09:09:26.015Z,2.15
2022-08-05T09:12:03.337Z,2.83
2022-08-05T09:14:58.319Z,2.22
2022-08-05T09:17:43.253Z,2.10
2022-08-05T09:20:36.687Z,2.50
2022-08-05T09:23:09.355Z,2.30
2022-08-05T09:26:01.873Z,2.25
2022-08-05T09:28:31.478Z,2.03
2022-08-05T09:31:22.121Z,2.03
2022-08-05T09:34:01.035Z,1.92
2022-08-05T09:36:54.366Z,2.10
2022-08-05T09:39:39.306Z,2.88
2022-08-05T09:42:13.658Z,2.58
2022-08-05T09:44:50.625Z,2.33
2022-08-05T09:47:22.371Z,5.82
2022-08-05T09:50:00.390Z,7.95
2022-08-05T09:52:33.644Z,6.85
2022-08-05T09:55:21.133Z,3.15
2022-08-05T09:57:54.649Z,2.85
2022-08-05T10:00:25.999Z,2.20
2022-08-05T10:02:54.820Z,2.80
2022-08-05T10:05:26.672Z,3.75
2022-08-05T10:08:34.602Z,6.03
2022-08-05T10:10:45.214Z,3.28
2022-08-05T10:13:31.667Z,3.38
2022-08-05T10:16:53.222Z,3.63
2022-08-05T10:19:23.487Z,5.63
2022-08-05T10:21:59.035Z,6.95
2022-08-05T10:24:26.976Z,3.72
2022-08-05T10:26:56.319Z,10.63
2022-08-05T10:30:41.540Z,5.05
2022-08-05T10:33:02.202Z,11.68
2022-08-05T10:35:03.732Z,3.35
2022-08-05T10:37:40.147Z,3.00
2022-08-05T10:40:30.244Z,5.47
2022-08-05T10:43:35.579Z,2.92
2022-08-05T10:46:06.353Z,3.17
2022-08-05T10:48:57.464Z,8.40
2022-08-05T10:51:29.197Z,3.88
2022-08-05T10:53:58.251Z,3.33
2022-08-05T10:56:28.767Z,3.42
2022-08-05T10:58:55.675Z,4.70
2022-08-05T11:02:02.707Z,2.65
2022-08-05T11:04:21.909Z,2.40
2022-08-05T11:07:01.443Z,2.58
2022-08-05T11:09:46.619Z,2.00
2022-08-05T11:12:32.334Z,2.50
2022-08-05T11:15:19.555Z,2.60
2022-08-05T11:17:59.449Z,2.40
2022-08-05T11:20:39.224Z,2.40
2022-08-05T11:23:33.336Z,2.40
2022-08-05T11:26:29.287Z,2.50
2022-08-05T11:29:12.291Z,3.17
2022-08-05T11:31:56.519Z,2.17
2022-08-05T11:34:47.614Z,3.03
2022-08-05T11:38:30.298Z,2.50
2022-08-05T11:41:34.329Z,2.40
2022-08-05T11:44:04.344Z,2.42
2022-08-05T11:46:33.601Z,2.55
2022-08-05T11:49:02.176Z,2.40
2022-08-05T11:51:44.293Z,2.85
2022-08-05T11:54:33.654Z,2.40
2022-08-05T11:57:02.184Z,2.38
2022-08-05T11:59:42.037Z,2.78
2022-08-05T12:02:30.666Z,3.00
2022-08-05T12:05:00.101Z,2.92
2022-08-05T12:08:09.296Z,2.20
2022-08-05T12:10:21.468Z,2.70
2022-08-05T12:12:58.472Z,2.60
2022-08-05T12:15:37.846Z,2.63
2022-08-05T12:18:11.996Z,2.45
2022-08-05T12:20:39.406Z,2.17
2022-08-05T12:23:07.989Z,2.40
2022-08-05T12:25:48.757Z,2.13
2022-08-05T12:28:30.990Z,2.30
2022-08-05T12:30:58.494Z,2.65
2022-08-05T12:33:37.111Z,2.20
2022-08-05T12:36:08.108Z,2.38
2022-08-05T12:38:42.344Z,2.55
2022-08-05T12:41:12.880Z,2.25
2022-08-05T12:43:56.329Z,2.45
2022-08-05T12:46:29.011Z,2.50
2022-08-05T12:49:13.707Z,2.30
2022-08-05T12:52:14.395Z,2.35
2022-08-05T12:54:31.326Z,2.47
2022-08-05T12:57:01.824Z,2.63
2022-08-05T13:00:08.452Z,2.03
2022-08-05T13:02:30.613Z,2.28
2022-08-05T13:04:57.931Z,2.08
2022-08-05T13:07:55.775Z,2.22
2022-08-05T13:10:14.168Z,2.03
2022-08-05T13:12:51.077Z,2.10
2022-08-05T13:15:41.076Z,1.95
2022-08-05T13:18:08.527Z,2.20
2022-08-05T13:20:35.562Z,1.83
2022-08-05T13:23:07.640Z,2.00
2022-08-05T13:25:52.744Z,2.67
2022-08-05T13:28:22.238Z,2.10
2022-08-05T13:30:48.945Z,2.25
2022-08-05T13:34:22.158Z,2.25
2022-08-05T13:36:05.106Z,2.38
2022-08-05T13:38:36.014Z,1.80
2022-08-05T13:41:03.774Z,2.08
2022-08-05T13:43:44.590Z,2.35
2022-08-05T13:46:26.284Z,2.15
2022-08-05T13:49:04.705Z,1.77
2022-08-05T13:51:40.108Z,2.00
2022-08-05T13:54:12.721Z,2.33
2022-08-05T13:56:45.597Z,2.17
2022-08-05T13:59:20.415Z,2.05
2022-08-05T14:01:57.425Z,2.30
2022-08-05T14:04:50.548Z,2.28
2022-08-05T14:07:55.653Z,1.63
2022-08-05T14:10:19.036Z,2.03
2022-08-05T14:12:55.040Z,1.85
2022-08-05T14:16:05.835Z,2.35
2022-08-05T14:18:17.467Z,3.10
2022-08-05T14:20:47.244Z,2.33
2022-08-05T14:23:14.748Z,1.90
2022-08-05T14:25:53.210Z,2.20
2022-08-05T14:28:26.705Z,2.20
2022-08-05T14:30:54.551Z,1.90
2022-08-05T14:33:22.703Z,2.55
2022-08-05T14:35:51.819Z,2.33
2022-08-05T14:38:33.000Z,2.20
2022-08-05T14:41:06.808Z,1.80
2022-08-05T14:43:59.391Z,2.28
2022-08-05T14:46:28.488Z,2.10
2022-08-05T14:48:56.997Z,2.38
2022-08-05T14:51:23.872Z,2.17
2022-08-05T14:54:28.479Z,2.17
2022-08-05T14:56:43.980Z,2.20
2022-08-05T14:59:11.478Z,2.05
2022-08-05T15:01:49.163Z,2.22
2022-08-05T15:04:17.095Z,1.92
2022-08-05T15:06:49.298Z,2.10
2022-08-05T15:09:52.169Z,2.10
2022-08-05T15:12:09.215Z,2.22
2022-08-05T15:14:48.247Z,2.17
2022-08-05T15:17:44.563Z,2.00
2022-08-05T15:20:04.561Z,2.00
2022-08-05T15:22:31.383Z,2.13
2022-08-05T15:24:59.198Z,2.33
2022-08-05T15:27:26.222Z,1.90
2022-08-05T15:29:59.201Z,2.05
2022-08-05T15:32:28.714Z,1.73
2022-08-05T15:34:56.681Z,1.85
2022-08-05T15:38:34.337Z,2.55
2022-08-05T15:41:04.709Z,2.28
2022-08-05T15:43:07.965Z,2.75
2022-08-05T15:45:38.843Z,2.25
2022-08-05T15:48:05.818Z,2.50
2022-08-05T15:50:33.614Z,2.10
2022-08-05T15:53:05.182Z,2.20
2022-08-05T15:56:02.463Z,2.00
2022-08-05T15:58:19.413Z,2.50
2022-08-05T16:00:57.084Z,2.10
2022-08-05T16:03:36.746Z,2.00
2022-08-05T16:06:08.592Z,2.03
2022-08-05T16:08:38.412Z,1.88
2022-08-05T16:11:05.112Z,2.20
2022-08-05T16:13:32.058Z,2.20
2022-08-05T16:16:03.347Z,1.83
2022-08-05T16:18:30.650Z,2.10
2022-08-05T16:20:57.553Z,2.20
2022-08-05T16:23:24.311Z,2.20
2022-08-05T16:25:55.810Z,2.40
2022-08-05T16:28:24.283Z,1.90
2022-08-05T16:30:52.117Z,2.30
2022-08-05T16:33:19.602Z,1.98
2022-08-05T16:35:48.802Z,2.33
2022-08-05T16:38:25.567Z,2.50
2022-08-05T16:41:00.265Z,2.15
2022-08-05T16:43:30.256Z,1.95
2022-08-05T16:46:03.551Z,2.13
2022-08-05T16:48:36.058Z,1.98
2022-08-05T16:51:08.659Z,1.90
2022-08-05T16:54:05.124Z,2.08
2022-08-05T16:56:23.292Z,2.22
2022-08-05T16:58:50.446Z,2.53
2022-08-05T17:01:18.780Z,2.60
2022-08-05T17:03:45.929Z,2.35
2022-08-05T17:06:12.999Z,2.50
2022-08-05T17:08:53.077Z,2.20
2022-08-05T17:11:20.519Z,2.40
2022-08-05T17:13:50.727Z,2.05
2022-08-05T17:16:32.599Z,2.10
2022-08-05T17:19:02.627Z,2.55
2022-08-05T17:21:35.289Z,2.70
2022-08-05T17:24:14.371Z,2.20
2022-08-05T17:26:50.980Z,2.45
2022-08-05T17:29:22.839Z,2.08
2022-08-05T17:31:59.669Z,1.88
2022-08-05T17:34:29.853Z,2.08
2022-08-05T17:36:59.080Z,2.00
2022-08-05T17:39:33.395Z,2.63
2022-08-05T17:42:28.441Z,2.10
2022-08-05T17:44:50.366Z,2.38
2022-08-05T17:47:22.466Z,2.63
2022-08-05T17:49:56.768Z,2.67
2022-08-05T17:52:29.883Z,3.15
2022-08-05T17:54:56.535Z,4.15
2022-08-05T17:57:23.199Z,5.10
2022-08-05T18:00:03.425Z,6.00
2022-08-05T18:02:31.792Z,5.45
2022-08-05T18:04:58.991Z,4.80
2022-08-05T18:07:40.956Z,4.72
2022-08-05T18:10:10.429Z,3.50
2022-08-05T18:12:37.602Z,3.80
2022-08-05T18:15:04.973Z,3.40
2022-08-05T18:18:01.458Z,3.38
2022-08-05T18:20:19.751Z,3.50
2022-08-05T18:22:57.469Z,3.42
2022-08-05T18:25:25.054Z,2.85
2022-08-05T18:27:52.795Z,2.42
2022-08-05T18:30:19.740Z,2.00
2022-08-05T18:32:53.662Z,2.63
2022-08-05T18:35:38.127Z,2.58
2022-08-05T18:38:16.411Z,2.78
2022-08-05T18:41:57.092Z,2.45
2022-08-05T18:43:38.384Z,2.25
2022-08-05T18:46:10.084Z,2.20
2022-08-05T18:48:41.636Z,2.22
2022-08-05T18:52:03.974Z,2.05
2022-08-05T18:54:14.518Z,2.42
2022-08-05T18:56:41.965Z,2.22
2022-08-05T18:59:43.129Z,1.90
2022-08-05T19:02:11.403Z,2.20
2022-08-05T19:05:01.295Z,1.98
2022-08-05T19:07:30.243Z,2.28
2022-08-05T19:10:12.439Z,2.60
2022-08-05T19:12:39.110Z,2.47
2022-08-05T19:15:05.974Z,2.60
2022-08-05T19:18:08.633Z,2.33
2022-08-05T19:20:41.753Z,2.20
2022-08-05T19:23:22.393Z,2.10
2022-08-05T19:26:01.676Z,2.47
2022-08-05T19:28:30.145Z,2.30
2022-08-05T19:30:56.949Z,2.40
2022-08-05T19:33:35.379Z,2.67
2022-08-05T19:36:06.038Z,2.33
2022-08-05T19:38:35.718Z,2.53
2022-08-05T19:41:02.888Z,2.60
2022-08-05T19:44:05.804Z,2.80
2022-08-05T19:46:29.980Z,3.40
2022-08-05T19:49:03.151Z,3.17
2022-08-05T19:52:05.240Z,3.13
2022-08-05T19:54:27.133Z,2.70
2022-08-05T19:57:09.201Z,3.03
2022-08-05T20:00:00.732Z,3.10
2022-08-05T20:02:24.171Z,2.78
2022-08-05T20:04:53.060Z,2.80
2022-08-05T20:07:47.415Z,2.70
2022-08-05T20:10:13.656Z,2.92
2022-08-05T20:12:47.555Z,3.00
2022-08-05T20:15:47.696Z,3.30
2022-08-05T20:18:04.398Z,3.15
2022-08-05T20:20:38.009Z,2.70
2022-08-05T20:23:05.546Z,2.58
2022-08-05T20:25:39.885Z,2.92
2022-08-05T20:28:07.420Z,3.05
2022-08-05T20:30:40.488Z,2.60
2022-08-05T20:33:08.780Z,2.80
2022-08-05T20:35:40.276Z,2.58
2022-08-05T20:38:11.900Z,3.03
2022-08-05T20:40:47.662Z,2.28
2022-08-05T20:43:17.677Z,3.08
2022-08-05T20:46:06.704Z,3.28
2022-08-05T20:48:35.553Z,2.67
2022-08-05T20:51:08.228Z,2.60
2022-08-05T20:53:36.506Z,3.05
2022-08-05T20:56:08.498Z,3.03
2022-08-05T20:58:35.707Z,3.38
2022-08-05T21:01:03.984Z,3.13
2022-08-05T21:03:34.748Z,2.95
2022-08-05T21:06:01.922Z,2.85
2022-08-05T21:08:41.432Z,2.90
2022-08-05T21:11:11.975Z,3.47
2022-08-05T21:13:55.852Z,3.60
2022-08-05T21:16:30.236Z,3.30
2022-08-05T21:19:00.194Z,3.20
2022-08-05T21:21:39.502Z,2.78
2022-08-05T21:24:12.736Z,3.13
2022-08-05T21:26:40.036Z,3.30
2022-08-05T21:29:10.190Z,2.83
2022-08-05T21:31:41.123Z,3.10
2022-08-05T21:34:08.549Z,2.70
2022-08-05T21:36:37.339Z,2.75
2022-08-05T21:39:04.002Z,2.63
2022-08-05T21:41:34.261Z,2.70
2022-08-05T21:44:03.760Z,2.83
2022-08-05T21:46:34.236Z,2.78
2022-08-05T21:49:02.241Z,3.45
2022-08-05T21:52:21.689Z,2.63
2022-08-05T21:54:18.086Z,2.90
2022-08-05T21:57:29.196Z,3.30
2022-08-05T22:00:01.936Z,3.38
2022-08-05T22:02:39.289Z,3.28
2022-08-05T22:05:09.985Z,3.20
2022-08-05T22:07:40.241Z,3.20
2022-08-05T22:10:25.521Z,3.53
2022-08-05T22:12:53.511Z,3.20
2022-08-05T22:15:57.189Z,3.15
2022-08-05T22:18:07.369Z,3.15
2022-08-05T22:20:38.897Z,3.45
2022-08-05T22:23:25.085Z,3.15
2022-08-05T22:26:30.412Z,3.15
2022-08-05T22:28:57.267Z,3.05
2022-08-05T22:31:24.836Z,3.78
2022-08-05T22:34:01.615Z,3.97
2022-08-05T22:36:29.235Z,3.50
2022-08-05T22:38:57.248Z,3.40
2022-08-05T22:42:10.992Z,3.40
2022-08-05T22:44:18.976Z,3.80
2022-08-05T22:46:45.910Z,3.42
2022-08-05T22:49:46.073Z,3.58
2022-08-05T22:52:05.388Z,3.95
2022-08-05T22:54:33.669Z,3.42
2022-08-05T22:57:00.305Z,4.38
2022-08-05T22:59:48.485Z,3.40
2022-08-05T23:02:16.480Z,3.63
2022-08-05T23:04:43.681Z,3.33
2022-08-05T23:07:18.581Z,3.25
2022-08-05T23:09:58.131Z,3.15
2022-08-05T23:12:32.621Z,3.58
2022-08-05T23:15:08.480Z,3.53
2022-08-05T23:17:37.928Z,3.15
2022-08-05T23:20:24.418Z,3.80
2022-08-05T23:22:55.993Z,3.17
2022-08-05T23:25:52.716Z,3.28
2022-08-05T23:28:10.571Z,3.70
2022-08-05T23:30:39.598Z,3.47
2022-08-05T23:33:07.453Z,3.80
2022-08-05T23:35:50.184Z,3.63
2022-08-05T23:38:17.032Z,3.33
2022-08-05T23:40:50.087Z,3.13
2022-08-05T23:43:25.604Z,3.45
2022-08-05T23:46:20.983Z,3.78
2022-08-05T23:49:00.840Z,3.38
2022-08-05T23:51:53.683Z,3.88
2022-08-05T23:54:30.202Z,3.10
2022-08-05T23:57:04.941Z,3.05
